createdAt,value
2023-01-30T01:26:27.153Z,-23706.61
2023-01-30T01:28:58.938Z,-23707.02
2023-01-30T01:31:27.327Z,-23706.86
2023-01-30T01:33:57.362Z,-23706.54
2023-01-30T01:39:15.463Z,-23706.00
2023-01-30T01:41:43.708Z,-23705.53
2023-01-30T01:44:13.177Z,-23705.06
2023-01-30T01:46:59.424Z,-23705.06
2023-01-30T01:49:35.270Z,-23704.84
2023-01-30T01:52:12.446Z,-23704.87
2023-01-30T01:54:53.127Z,-23704.74
2023-01-30T01:57:25.534Z,-23704.84
2023-01-30T01:59:58.173Z,-23704.81
2023-01-30T02:02:26.410Z,-23704.62
2023-01-30T02:05:05.227Z,-23704.58
2023-01-30T02:07:46.193Z,-23704.02
2023-01-30T02:10:30.738Z,-23703.89
2023-01-30T02:12:59.302Z,-23703.42
2023-01-30T02:15:27.662Z,-23703.29
2023-01-30T02:17:56.067Z,-23703.10
2023-01-30T02:20:40.852Z,-23702.88
2023-01-30T02:23:35.585Z,-23702.69
2023-01-30T02:26:35.063Z,-23702.79
2023-01-30T02:29:06.250Z,-23703.10
2023-01-30T02:31:45.804Z,-23703.36
2023-01-30T02:34:38.789Z,-23703.64
2023-01-30T02:37:40.838Z,-23703.92
2023-01-30T02:40:18.562Z,-23704.20
2023-01-30T02:43:05.478Z,-23704.52
2023-01-30T02:46:09.449Z,-23704.78
2023-01-30T02:48:40.374Z,-23704.90
2023-01-30T02:51:16.034Z,-23705.19
2023-01-30T02:53:44.628Z,-23705.25
2023-01-30T02:56:15.401Z,-23705.50
2023-01-30T02:58:50.208Z,-23705.69
2023-01-30T03:01:52.462Z,-23705.69
2023-01-30T03:04:48.755Z,-23705.50
2023-01-30T03:07:54.823Z,-23705.47
2023-01-30T03:10:38.981Z,-23705.34
2023-01-30T03:13:12.311Z,-23705.59
2023-01-30T03:15:41.326Z,-23706.13
2023-01-30T03:18:09.535Z,-23706.10
2023-01-30T03:20:38.721Z,-23706.13
2023-01-30T03:23:07.849Z,-23706.19
2023-01-30T03:25:37.323Z,-23706.95
2023-01-30T03:28:05.632Z,-23707.27
2023-01-30T03:30:34.996Z,-23707.61
2023-01-30T03:33:08.863Z,-23707.80
2023-01-30T03:35:37.919Z,-23707.77
2023-01-30T03:38:09.977Z,-23707.77
2023-01-30T03:40:38.762Z,-23707.58
2023-01-30T03:43:07.085Z,-23707.64
2023-01-30T03:45:37.309Z,-23707.83
2023-01-30T03:48:07.008Z,-23708.34
2023-01-30T03:50:35.648Z,-23708.72
2023-01-30T03:53:03.771Z,-23708.53
2023-01-30T03:55:31.917Z,-23708.56
2023-01-30T03:58:00.205Z,-23708.41
2023-01-30T04:00:30.634Z,-23708.13
2023-01-30T04:02:59.197Z,-23707.68
2023-01-30T04:05:27.596Z,-23707.30
2023-01-30T04:08:00.345Z,-23707.11
2023-01-30T04:10:28.830Z,-23707.11
2023-01-30T04:12:58.135Z,-23707.14
2023-01-30T04:15:26.335Z,-23707.08
2023-01-30T04:18:08.127Z,-23707.08
2023-01-30T04:21:11.610Z,-23706.86
2023-01-30T04:23:40.285Z,-23706.86
2023-01-30T04:26:09.711Z,-23706.61
2023-01-30T04:28:39.809Z,-23706.29
2023-01-30T04:31:08.166Z,-23706.29
2023-01-30T04:33:37.096Z,-23706.04
2023-01-30T04:36:07.163Z,-23706.10
2023-01-30T04:38:35.587Z,-23706.26
2023-01-30T04:41:04.799Z,-23705.97
2023-01-30T04:43:34.628Z,-23705.50
2023-01-30T04:46:38.340Z,-23705.82
2023-01-30T04:49:06.672Z,-23706.00
2023-01-30T04:51:34.907Z,-23705.72
2023-01-30T04:54:03.013Z,-23705.85
2023-01-30T04:56:32.070Z,-23705.60
2023-01-30T04:59:00.585Z,-23705.28
2023-01-30T05:01:32.412Z,-23705.34
2023-01-30T05:04:00.786Z,-23705.25
2023-01-30T05:06:29.303Z,-23704.93
2023-01-30T05:08:57.685Z,-23704.74
2023-01-30T05:11:26.754Z,-23704.61
2023-01-30T05:13:54.938Z,-23704.36
2023-01-30T05:16:23.256Z,-23704.14
2023-01-30T05:18:51.415Z,-23703.95
2023-01-30T05:21:21.115Z,-23703.64
2023-01-30T05:23:49.595Z,-23703.32
2023-01-30T05:26:17.905Z,-23703.36
2023-01-30T05:28:51.210Z,-23703.42
2023-01-30T05:31:19.904Z,-23703.29
2023-01-30T05:33:49.087Z,-23703.23
2023-01-30T05:36:18.512Z,-23703.36
2023-01-30T05:38:47.293Z,-23703.64
2023-01-30T05:41:16.048Z,-23703.92
2023-01-30T05:43:44.562Z,-23703.73
2023-01-30T05:46:13.224Z,-23703.61
2023-01-30T05:48:41.436Z,-23703.58
2023-01-30T05:51:16.969Z,-23703.54
2023-01-30T05:53:45.136Z,-23703.86
2023-01-30T05:56:14.282Z,-23704.52
2023-01-30T05:58:42.529Z,-23704.96
2023-01-30T06:01:12.425Z,-23705.06
2023-01-30T06:03:40.594Z,-23705.31
2023-01-30T06:06:10.555Z,-23705.53
2023-01-30T06:08:39.259Z,-23705.85
2023-01-30T06:11:09.817Z,-23705.79
2023-01-30T06:13:39.330Z,-23705.56
2023-01-30T06:16:08.558Z,-23705.94
2023-01-30T06:18:36.777Z,-23705.94
2023-01-30T06:21:05.268Z,-23705.97
2023-01-30T06:23:33.448Z,-23706.13
2023-01-30T06:26:03.485Z,-23706.32
2023-01-30T06:28:33.130Z,-23706.35
2023-01-30T06:31:01.488Z,-23706.42
2023-01-30T06:33:29.887Z,-23706.54
2023-01-30T06:35:58.319Z,-23706.48
2023-01-30T06:38:26.659Z,-23706.61
2023-01-30T06:40:54.917Z,-23707.02
2023-01-30T06:43:23.243Z,-23707.18
2023-01-30T06:45:52.600Z,-23707.49
2023-01-30T06:48:20.963Z,-23708.15
2023-01-30T06:50:49.088Z,-23708.66
2023-01-30T06:53:17.827Z,-23709.29
2023-01-30T06:55:45.965Z,-23709.48
2023-01-30T06:58:14.440Z,-23709.57
2023-01-30T07:00:45.133Z,-23710.02
2023-01-30T07:03:14.700Z,-23710.02
2023-01-30T07:05:44.834Z,-23710.30
2023-01-30T07:08:13.502Z,-23710.74
2023-01-30T07:10:43.304Z,-23711.28
2023-01-30T07:13:12.080Z,-23710.96
2023-01-30T07:15:40.769Z,-23711.25
2023-01-30T07:18:11.646Z,-23711.44
2023-01-30T07:20:41.628Z,-23711.19
2023-01-30T07:23:09.807Z,-23711.75
2023-01-30T07:25:38.144Z,-23712.16
2023-01-30T07:28:06.616Z,-23712.51
2023-01-30T07:30:36.244Z,-23712.92
2023-01-30T07:33:05.192Z,-23712.85
2023-01-30T07:35:34.894Z,-23712.82
2023-01-30T07:38:03.278Z,-23712.82
2023-01-30T07:40:34.540Z,-23712.85
2023-01-30T07:43:06.999Z,-23713.23
2023-01-30T07:45:38.455Z,-23713.33
2023-01-30T07:48:07.431Z,-23713.71
2023-01-30T07:50:36.323Z,-23714.02
2023-01-30T07:53:05.724Z,-23714.24
2023-01-30T07:55:34.134Z,-23714.69
2023-01-30T07:58:03.079Z,-23715.04
2023-01-30T08:00:31.557Z,-23715.19
2023-01-30T08:03:00.052Z,-23715.19
2023-01-30T08:05:28.225Z,-23715.41
2023-01-30T08:07:58.555Z,-23716.08
2023-01-30T08:10:28.675Z,-23716.80
2023-01-30T08:12:56.763Z,-23717.50
2023-01-30T08:15:24.944Z,-23718.19
2023-01-30T08:17:56.766Z,-23718.95
2023-01-30T08:20:25.066Z,-23719.99
2023-01-30T08:22:53.864Z,-23721.22
2023-01-30T08:25:27.211Z,-23721.73
2023-01-30T08:27:55.347Z,-23722.04
2023-01-30T08:30:23.576Z,-23722.48
2023-01-30T08:32:51.890Z,-23723.40
2023-01-30T08:35:20.222Z,-23724.50
2023-01-30T08:37:48.411Z,-23725.39
2023-01-30T08:40:17.168Z,-23726.27
2023-01-30T08:42:45.850Z,-23727.09
2023-01-30T08:45:14.478Z,-23727.53
2023-01-30T08:47:42.750Z,-23727.53
2023-01-30T08:50:12.140Z,-23728.00
2023-01-30T08:52:40.989Z,-23728.60
2023-01-30T08:55:09.671Z,-23729.04
2023-01-30T08:57:39.707Z,-23729.30
2023-01-30T09:00:09.190Z,-23729.90
2023-01-30T09:02:37.379Z,-23730.53
2023-01-30T09:05:08.766Z,-23730.94
2023-01-30T09:07:37.684Z,-23731.76
2023-01-30T09:10:06.383Z,-23732.36
2023-01-30T09:12:35.144Z,-23733.62
2023-01-30T09:15:07.136Z,-23734.44
2023-01-30T09:17:35.641Z,-23734.76
2023-01-30T09:20:06.578Z,-23734.41
2023-01-30T09:22:35.189Z,-23733.96
2023-01-30T09:25:03.824Z,-23733.71
2023-01-30T09:27:32.097Z,-23733.59
2023-01-30T09:30:00.587Z,-23733.96
2023-01-30T09:32:29.138Z,-23733.27
2023-01-30T09:34:57.770Z,-23732.48
2023-01-30T09:37:25.894Z,-23731.88
2023-01-30T09:39:54.016Z,-23731.03
2023-01-30T09:42:30.332Z,-23730.43
2023-01-30T09:45:33.999Z,-23729.93
2023-01-30T09:48:02.614Z,-23729.43
2023-01-30T09:50:39.590Z,-23728.41
2023-01-30T09:53:42.576Z,-23727.72
2023-01-30T09:56:10.701Z,-23727.94
2023-01-30T09:58:46.317Z,-23727.88
2023-01-30T10:01:29.519Z,-23727.15
2023-01-30T10:04:00.306Z,-23726.74
2023-01-30T10:06:28.460Z,-23726.52
2023-01-30T10:08:59.665Z,-23725.36
2023-01-30T10:11:34.223Z,-23723.27
2023-01-30T10:14:32.548Z,-23721.85
2023-01-30T10:17:01.471Z,-23719.93
2023-01-30T10:19:57.676Z,-23718.10
2023-01-30T10:22:35.027Z,-23717.56
2023-01-30T10:25:19.290Z,-23717.62
2023-01-30T10:28:12.533Z,-23718.51
2023-01-30T10:30:41.111Z,-23719.51
2023-01-30T10:33:17.952Z,-23720.56
2023-01-30T10:35:46.811Z,-23721.41
2023-01-30T10:38:30.647Z,-23722.13
2023-01-30T10:41:30.517Z,-23722.64
2023-01-30T10:44:13.261Z,-23723.33
2023-01-30T10:47:00.603Z,-23724.28
2023-01-30T10:49:42.866Z,-23725.73
2023-01-30T10:52:11.099Z,-23727.21
2023-01-30T10:54:52.381Z,-23728.13
2023-01-30T10:57:39.782Z,-23729.23
2023-01-30T11:00:14.484Z,-23730.53
2023-01-30T11:03:05.224Z,-23731.09
2023-01-30T11:06:02.231Z,-23731.92
2023-01-30T11:08:35.061Z,-23732.39
2023-01-30T11:11:28.188Z,-23732.77
2023-01-30T11:14:09.530Z,-23733.65
2023-01-30T11:16:46.983Z,-23733.96
2023-01-30T11:19:20.287Z,-23734.31
2023-01-30T11:21:51.954Z,-23734.88
2023-01-30T11:24:30.929Z,-23735.76
2023-01-30T11:27:12.012Z,-23736.43
2023-01-30T11:29:40.241Z,-23737.40
2023-01-30T11:32:28.623Z,-23738.10
2023-01-30T11:35:24.550Z,-23739.04
2023-01-30T11:37:53.630Z,-23738.92
2023-01-30T11:40:27.101Z,-23738.85
2023-01-30T11:43:05.923Z,-23738.79
2023-01-30T11:45:39.012Z,-23738.76
2023-01-30T11:49:02.694Z,-23738.92
2023-01-30T11:51:26.388Z,-23738.92
2023-01-30T11:53:59.482Z,-23738.66
2023-01-30T11:56:36.293Z,-23738.79
2023-01-30T11:59:14.549Z,-23739.20
2023-01-30T12:01:42.794Z,-23739.14
2023-01-30T12:04:12.166Z,-23739.23
2023-01-30T12:06:42.453Z,-23739.17
2023-01-30T12:09:31.389Z,-23739.61
2023-01-30T12:11:59.656Z,-23739.86
2023-01-30T12:15:19.833Z,-23740.59
2023-01-30T12:18:12.434Z,-23741.22
2023-01-30T12:21:00.531Z,-23741.47
2023-01-30T12:23:52.990Z,-23741.38
2023-01-30T12:26:25.842Z,-23741.94
2023-01-30T12:29:07.953Z,-23742.01
2023-01-30T12:31:46.449Z,-23742.10
2023-01-30T12:34:14.673Z,-23741.97
2023-01-30T12:36:51.085Z,-23741.91
2023-01-30T12:39:37.777Z,-23742.13
2023-01-30T12:42:53.514Z,-23742.67
2023-01-30T12:45:23.472Z,-23743.08
2023-01-30T12:48:03.427Z,-23742.96
2023-01-30T12:50:46.869Z,-23743.30
2023-01-30T12:53:24.945Z,-23743.43
2023-01-30T12:56:15.498Z,-23743.49
2023-01-30T12:59:02.047Z,-23743.68
2023-01-30T13:01:33.489Z,-23743.80
2023-01-30T13:04:15.360Z,-23743.71
2023-01-30T13:07:02.282Z,-23744.18
2023-01-30T13:09:49.035Z,-23744.56
2023-01-30T13:12:29.353Z,-23745.13
2023-01-30T13:15:17.691Z,-23745.82
2023-01-30T13:18:01.501Z,-23745.86
2023-01-30T13:20:51.082Z,-23746.55
2023-01-30T13:23:34.421Z,-23746.83
2023-01-30T13:26:05.820Z,-23746.86
2023-01-30T13:28:40.157Z,-23746.86
2023-01-30T13:31:11.475Z,-23747.21
2023-01-30T13:33:43.073Z,-23747.40
2023-01-30T13:36:38.200Z,-23747.46
2023-01-30T13:39:27.908Z,-23747.56
2023-01-30T13:41:56.695Z,-23747.18
2023-01-30T13:44:28.230Z,-23746.77
2023-01-30T13:46:56.454Z,-23746.49
2023-01-30T13:49:44.871Z,-23746.45
2023-01-30T17:02:30.474Z,-23748.28
2023-01-30T17:05:11.626Z,-23748.44
2023-01-30T17:07:38.637Z,-23747.94
2023-01-30T17:10:08.746Z,-23747.33
2023-01-30T17:12:36.950Z,-23747.02
2023-01-30T17:15:13.518Z,-23746.64
2023-01-30T17:17:43.485Z,-23746.05
2023-01-30T17:20:11.715Z,-23745.63
2023-01-30T17:22:42.851Z,-23745.19
2023-01-30T17:25:45.891Z,-23745.19
2023-01-30T17:28:20.499Z,-23745.19
2023-01-30T17:30:48.555Z,-23745.19
2023-01-30T17:33:19.550Z,-23744.75
2023-01-30T17:35:46.439Z,-23744.75
2023-01-30T17:38:13.496Z,-23744.69
2023-01-30T17:40:41.101Z,-23744.63
2023-01-30T17:43:09.014Z,-23744.38
2023-01-30T17:45:36.102Z,-23744.25
2023-01-30T17:48:03.006Z,-23744.31
2023-01-30T17:50:31.887Z,-23744.18
2023-01-30T17:52:58.679Z,-23743.77
2023-01-30T17:55:25.526Z,-23743.99
2023-01-30T17:57:54.516Z,-23744.05
2023-01-30T18:00:22.261Z,-23743.96
2023-01-30T18:02:49.277Z,-23743.83
2023-01-30T18:05:23.143Z,-23743.24
2023-01-30T18:07:50.387Z,-23742.48
2023-01-30T18:10:18.922Z,-23741.97
2023-01-30T18:12:46.407Z,-23740.90
2023-01-30T18:15:14.656Z,-23740.02
2023-01-30T18:17:45.303Z,-23738.95
2023-01-30T18:20:13.922Z,-23738.00
2023-01-30T18:22:41.020Z,-23737.21
2023-01-30T18:25:08.131Z,-23736.14
2023-01-30T18:27:35.777Z,-23735.23
2023-01-30T18:30:03.092Z,-23734.25
2023-01-30T18:32:31.921Z,-23733.11
2023-01-30T18:35:00.148Z,-23732.26
2023-01-30T18:37:26.953Z,-23731.79
2023-01-30T18:39:57.275Z,-23731.72
2023-01-30T18:42:24.538Z,-23731.63
2023-01-30T18:44:51.450Z,-23731.54
2023-01-30T18:47:21.629Z,-23731.13
2023-01-30T18:49:48.438Z,-23730.78
2023-01-30T18:52:15.105Z,-23730.56
2023-01-30T18:54:45.453Z,-23730.24
2023-01-30T18:57:12.255Z,-23730.24
2023-01-30T18:59:40.525Z,-23729.93
2023-01-30T19:02:07.568Z,-23729.49
2023-01-30T19:04:34.588Z,-23729.39
2023-01-30T19:07:01.387Z,-23729.27
2023-01-30T19:09:28.398Z,-23729.23
2023-01-30T19:12:14.617Z,-23729.01
2023-01-30T19:14:41.369Z,-23728.41
2023-01-30T19:17:10.611Z,-23727.94
2023-01-30T19:19:37.419Z,-23727.25
2023-01-30T19:22:04.529Z,-23726.80
2023-01-30T19:24:32.300Z,-23726.62
2023-01-30T19:26:59.195Z,-23726.43
2023-01-30T19:29:28.972Z,-23726.39
2023-01-30T19:31:56.229Z,-23726.14
2023-01-30T19:34:23.859Z,-23725.48
2023-01-30T19:36:51.337Z,-23724.57
2023-01-30T19:39:18.574Z,-23723.68
2023-01-30T19:41:45.585Z,-23722.71
2023-01-30T19:44:12.472Z,-23722.29
2023-01-30T19:46:39.635Z,-23721.72
2023-01-30T19:49:06.790Z,-23720.87
2023-01-30T19:51:34.191Z,-23720.05
2023-01-30T19:54:04.737Z,-23719.17
2023-01-30T19:56:32.266Z,-23718.47
2023-01-30T19:58:59.821Z,-23717.62
2023-01-30T20:01:29.133Z,-23716.49
2023-01-30T20:03:56.510Z,-23715.38
2023-01-30T20:06:27.677Z,-23714.02
2023-01-30T20:09:02.314Z,-23713.17
2023-01-30T20:11:29.567Z,-23712.51
2023-01-30T20:13:57.781Z,-23712.44
2023-01-30T20:16:27.082Z,-23712.29
2023-01-30T20:18:55.639Z,-23712.29
2023-01-30T20:21:22.970Z,-23712.13
2023-01-30T20:23:49.863Z,-23711.59
2023-01-30T20:26:21.971Z,-23710.80
2023-01-30T20:28:48.843Z,-23710.33
2023-01-30T20:31:18.308Z,-23709.70
2023-01-30T20:33:45.500Z,-23709.48
2023-01-30T20:36:15.200Z,-23709.00
2023-01-30T20:38:44.269Z,-23708.85
2023-01-30T20:41:15.949Z,-23708.85
2023-01-30T20:43:44.455Z,-23708.79
2023-01-30T20:46:15.994Z,-23708.50
2023-01-30T20:48:45.201Z,-23707.77
2023-01-30T20:51:12.931Z,-23707.14
2023-01-30T20:53:40.255Z,-23706.45
2023-01-30T20:56:07.773Z,-23706.04
2023-01-30T20:58:35.492Z,-23705.60
2023-01-30T21:01:06.920Z,-23705.00
2023-01-30T21:03:34.024Z,-23704.39
2023-01-30T21:06:01.523Z,-23704.43
2023-01-30T21:08:28.908Z,-23703.92
2023-01-30T21:11:06.875Z,-23703.48
2023-01-30T21:13:35.537Z,-23702.69
2023-01-30T21:16:05.115Z,-23702.09
2023-01-30T21:18:35.261Z,-23701.68
2023-01-30T21:21:02.259Z,-23701.40
2023-01-30T21:23:29.340Z,-23701.53
2023-01-30T21:25:56.223Z,-23700.99
2023-01-30T21:28:22.985Z,-23700.23
2023-01-30T21:30:49.912Z,-23699.31
2023-01-30T21:33:16.973Z,-23698.90
2023-01-30T21:35:44.120Z,-23698.81
2023-01-30T21:38:29.475Z,-23698.55
2023-01-30T21:41:14.719Z,-23698.81
2023-01-30T21:43:41.492Z,-23698.62
2023-01-30T21:46:08.292Z,-23698.30
2023-01-30T21:48:35.051Z,-23698.14
2023-01-30T21:51:11.417Z,-23698.11
2023-01-30T21:53:38.197Z,-23697.73
2023-01-30T21:56:05.402Z,-23697.57
2023-01-30T21:58:32.514Z,-23697.35
2023-01-30T22:01:04.647Z,-23697.42
2023-01-30T22:03:36.469Z,-23697.32
2023-01-30T22:06:06.296Z,-23697.17
2023-01-30T22:08:34.842Z,-23697.13
2023-01-30T22:11:12.926Z,-23697.36
2023-01-30T22:13:40.415Z,-23697.42
2023-01-30T22:16:10.793Z,-23697.79
2023-01-30T22:18:37.902Z,-23697.73
2023-01-30T22:21:13.232Z,-23697.29
2023-01-30T22:23:41.564Z,-23697.29
2023-01-30T22:26:08.892Z,-23697.48
2023-01-30T22:28:36.364Z,-23697.29
2023-01-30T22:31:10.743Z,-23697.36
2023-01-30T22:33:39.430Z,-23697.92
2023-01-30T22:36:07.098Z,-23698.18
2023-01-30T22:38:34.593Z,-23698.11
2023-01-30T22:41:02.742Z,-23698.30
2023-01-30T22:43:30.243Z,-23698.55
2023-01-30T22:46:01.385Z,-23698.46
2023-01-30T22:48:28.663Z,-23698.46
2023-01-30T22:51:22.199Z,-23698.46
2023-01-30T22:54:16.248Z,-23698.27
2023-01-30T22:56:44.621Z,-23698.02
2023-01-30T22:59:11.504Z,-23698.11
2023-01-30T23:01:42.875Z,-23698.27
2023-01-30T23:04:11.712Z,-23698.40
2023-01-30T23:06:40.627Z,-23698.49
2023-01-30T23:09:08.171Z,-23698.37
2023-01-30T23:11:37.969Z,-23698.33
2023-01-30T23:14:09.992Z,-23698.43
2023-01-30T23:16:39.128Z,-23698.43
2023-01-30T23:19:06.874Z,-23698.43
2023-01-30T23:21:37.221Z,-23698.11
2023-01-30T23:24:14.522Z,-23698.05
2023-01-30T23:26:43.415Z,-23697.98
2023-01-30T23:29:12.660Z,-23698.40
2023-01-30T23:31:42.362Z,-23698.81
2023-01-30T23:34:18.614Z,-23698.81
2023-01-30T23:36:45.823Z,-23699.06
2023-01-30T23:39:12.945Z,-23699.41
2023-01-30T23:41:39.962Z,-23699.69
2023-01-30T23:44:07.834Z,-23699.91
2023-01-30T23:46:37.693Z,-23700.26
2023-01-30T23:49:08.888Z,-23700.64
2023-01-30T23:51:36.592Z,-23700.54
2023-01-30T23:54:03.677Z,-23700.51
2023-01-30T23:56:32.063Z,-23700.64
2023-01-30T23:58:58.948Z,-23700.64
